sensor_id;sensor_type;location;lat;lon;timestamp;temperature;humidity
17252;DHT22;8742;51.716;8.790;2022-12-10T00:01:05;-1.10;99.90
17252;DHT22;8742;51.716;8.790;2022-12-10T00:03:33;-1.20;99.90
17252;DHT22;8742;51.716;8.790;2022-12-10T00:06:02;-1.30;99.90
17252;DHT22;8742;51.716;8.790;2022-12-10T00:08:30;-1.30;99.90
17252;DHT22;8742;51.716;8.790;2022-12-10T00:10:57;-1.40;99.90
17252;DHT22;8742;51.716;8.790;2022-12-10T00:13:24;-1.50;99.90
17252;DHT22;8742;51.716;8.790;2022-12-10T00:15:50;-1.50;99.90
17252;DHT22;8742;51.716;8.790;2022-12-10T00:18:17;-1.60;99.90
17252;DHT22;8742;51.716;8.790;2022-12-10T00:20:44;-1.60;99.90
17252;DHT22;8742;51.716;8.790;2022-12-10T00:23:12;-1.60;99.90
17252;DHT22;8742;51.716;8.790;2022-12-10T00:25:39;-1.70;99.90
17252;DHT22;8742;51.716;8.790;2022-12-10T00:28:06;-1.70;99.90
17252;DHT22;8742;51.716;8.790;2022-12-10T00:30:33;-1.80;99.90
17252;DHT22;8742;51.716;8.790;2022-12-10T00:33:00;-1.80;99.90
17252;DHT22;8742;51.716;8.790;2022-12-10T00:35:27;-1.90;99.90
17252;DHT22;8742;51.716;8.790;2022-12-10T00:37:54;-1.90;99.90
17252;DHT22;8742;51.716;8.790;2022-12-10T00:40:22;-1.90;99.90
17252;DHT22;8742;51.716;8.790;2022-12-10T00:42:49;-2.00;99.90
17252;DHT22;8742;51.716;8.790;2022-12-10T00:45:16;-2.10;99.90
17252;DHT22;8742;51.716;8.790;2022-12-10T00:47:43;-2.10;99.90
17252;DHT22;8742;51.716;8.790;2022-12-10T00:50:10;-2.10;99.90
17252;DHT22;8742;51.716;8.790;2022-12-10T00:55:17;-2.20;99.90
17252;DHT22;8742;51.716;8.790;2022-12-10T00:57:44;-2.20;99.90
17252;DHT22;8742;51.716;8.790;2022-12-10T01:00:12;-2.20;99.90
17252;DHT22;8742;51.716;8.790;2022-12-10T01:02:39;-2.30;99.90
17252;DHT22;8742;51.716;8.790;2022-12-10T01:05:06;-2.30;99.90
17252;DHT22;8742;51.716;8.790;2022-12-10T01:07:33;-2.40;99.90
17252;DHT22;8742;51.716;8.790;2022-12-10T01:10:00;-2.40;99.90
17252;DHT22;8742;51.716;8.790;2022-12-10T01:12:29;-2.40;99.90
17252;DHT22;8742;51.716;8.790;2022-12-10T01:14:56;-2.50;99.90
17252;DHT22;8742;51.716;8.790;2022-12-10T01:17:22;-2.40;99.90
17252;DHT22;8742;51.716;8.790;2022-12-10T01:19:49;-2.40;99.90
17252;DHT22;8742;51.716;8.790;2022-12-10T01:22:16;-2.40;99.90
17252;DHT22;8742;51.716;8.790;2022-12-10T01:24:43;-2.40;99.90
17252;DHT22;8742;51.716;8.790;2022-12-10T01:27:10;-2.40;99.90
17252;DHT22;8742;51.716;8.790;2022-12-10T01:29:38;-2.30;99.90
17252;DHT22;8742;51.716;8.790;2022-12-10T01:32:05;-2.30;99.90
17252;DHT22;8742;51.716;8.790;2022-12-10T01:34:32;-2.20;99.90
17252;DHT22;8742;51.716;8.790;2022-12-10T01:36:58;-2.20;99.90
17252;DHT22;8742;51.716;8.790;2022-12-10T01:39:25;-2.20;99.90
17252;DHT22;8742;51.716;8.790;2022-12-10T01:41:53;-2.10;99.90
17252;DHT22;8742;51.716;8.790;2022-12-10T01:45:01;-2.10;99.90
17252;DHT22;8742;51.716;8.790;2022-12-10T01:47:28;-2.10;99.90
17252;DHT22;8742;51.716;8.790;2022-12-10T01:49:55;-2.10;99.90
17252;DHT22;8742;51.716;8.790;2022-12-10T01:52:23;-2.10;99.90
17252;DHT22;8742;51.716;8.790;2022-12-10T01:54:50;-2.00;99.90
17252;DHT22;8742;51.716;8.790;2022-12-10T01:57:20;-2.00;99.90
17252;DHT22;8742;51.716;8.790;2022-12-10T01:59:51;-2.00;99.90
17252;DHT22;8742;51.716;8.790;2022-12-10T02:02:28;-2.00;99.90
17252;DHT22;8742;51.716;8.790;2022-12-10T02:05:07;-2.00;99.90
17252;DHT22;8742;51.716;8.790;2022-12-10T02:07:45;-2.00;99.90
17252;DHT22;8742;51.716;8.790;2022-12-10T02:10:22;-1.90;99.90
17252;DHT22;8742;51.716;8.790;2022-12-10T02:12:54;-1.90;99.90
17252;DHT22;8742;51.716;8.790;2022-12-10T02:15:26;-1.90;99.90
17252;DHT22;8742;51.716;8.790;2022-12-10T02:17:58;-1.80;99.90
17252;DHT22;8742;51.716;8.790;2022-12-10T02:20:30;-1.80;99.90
17252;DHT22;8742;51.716;8.790;2022-12-10T02:23:04;-1.80;99.90
17252;DHT22;8742;51.716;8.790;2022-12-10T02:25:37;-1.80;99.90
17252;DHT22;8742;51.716;8.790;2022-12-10T02:28:12;-1.70;99.90
17252;DHT22;8742;51.716;8.790;2022-12-10T02:30:42;-1.80;99.90
17252;DHT22;8742;51.716;8.790;2022-12-10T02:33:12;-1.80;99.90
17252;DHT22;8742;51.716;8.790;2022-12-10T02:35:41;-1.80;99.90
17252;DHT22;8742;51.716;8.790;2022-12-10T02:38:11;-1.80;99.90
17252;DHT22;8742;51.716;8.790;2022-12-10T02:40:43;-1.90;99.90
17252;DHT22;8742;51.716;8.790;2022-12-10T02:43:12;-1.90;99.90
17252;DHT22;8742;51.716;8.790;2022-12-10T02:45:42;-1.90;99.90
17252;DHT22;8742;51.716;8.790;2022-12-10T02:48:11;-1.90;99.90
17252;DHT22;8742;51.716;8.790;2022-12-10T02:50:38;-1.90;99.90
17252;DHT22;8742;51.716;8.790;2022-12-10T02:53:05;-1.90;99.90
17252;DHT22;8742;51.716;8.790;2022-12-10T02:55:43;-1.90;99.90
17252;DHT22;8742;51.716;8.790;2022-12-10T02:58:18;-2.00;99.90
17252;DHT22;8742;51.716;8.790;2022-12-10T03:00:54;-1.90;99.90
17252;DHT22;8742;51.716;8.790;2022-12-10T03:03:31;-2.00;99.90
17252;DHT22;8742;51.716;8.790;2022-12-10T03:06:05;-2.00;99.90
17252;DHT22;8742;51.716;8.790;2022-12-10T03:08:39;-2.00;99.90
17252;DHT22;8742;51.716;8.790;2022-12-10T03:11:11;-1.90;99.90
17252;DHT22;8742;51.716;8.790;2022-12-10T03:13:43;-1.90;99.90
17252;DHT22;8742;51.716;8.790;2022-12-10T03:16:16;-1.90;99.90
17252;DHT22;8742;51.716;8.790;2022-12-10T03:18:48;-1.80;99.90
17252;DHT22;8742;51.716;8.790;2022-12-10T03:21:16;-1.90;99.90
17252;DHT22;8742;51.716;8.790;2022-12-10T03:23:46;-1.80;99.90
17252;DHT22;8742;51.716;8.790;2022-12-10T03:26:15;-1.90;99.90
17252;DHT22;8742;51.716;8.790;2022-12-10T03:28:45;-1.90;99.90
17252;DHT22;8742;51.716;8.790;2022-12-10T03:31:14;-2.00;99.90
17252;DHT22;8742;51.716;8.790;2022-12-10T03:33:42;-2.00;99.90
17252;DHT22;8742;51.716;8.790;2022-12-10T03:36:09;-2.10;99.90
17252;DHT22;8742;51.716;8.790;2022-12-10T03:38:37;-2.10;99.90
17252;DHT22;8742;51.716;8.790;2022-12-10T03:41:05;-2.10;99.90
17252;DHT22;8742;51.716;8.790;2022-12-10T03:43:32;-2.00;99.90
17252;DHT22;8742;51.716;8.790;2022-12-10T03:45:58;-2.00;99.90
17252;DHT22;8742;51.716;8.790;2022-12-10T03:48:27;-2.10;99.90
17252;DHT22;8742;51.716;8.790;2022-12-10T03:50:54;-2.00;99.90
17252;DHT22;8742;51.716;8.790;2022-12-10T03:53:20;-2.10;99.90
17252;DHT22;8742;51.716;8.790;2022-12-10T03:55:47;-2.00;99.90
17252;DHT22;8742;51.716;8.790;2022-12-10T03:58:14;-2.00;99.90
17252;DHT22;8742;51.716;8.790;2022-12-10T04:00:41;-2.00;99.90
17252;DHT22;8742;51.716;8.790;2022-12-10T04:03:08;-2.00;99.90
17252;DHT22;8742;51.716;8.790;2022-12-10T04:05:36;-2.00;99.90
17252;DHT22;8742;51.716;8.790;2022-12-10T04:08:03;-2.00;99.90
17252;DHT22;8742;51.716;8.790;2022-12-10T04:10:35;-2.00;99.90
17252;DHT22;8742;51.716;8.790;2022-12-10T04:13:01;-2.00;99.90
17252;DHT22;8742;51.716;8.790;2022-12-10T04:15:45;-2.00;99.90
17252;DHT22;8742;51.716;8.790;2022-12-10T04:18:30;-2.00;99.90
17252;DHT22;8742;51.716;8.790;2022-12-10T04:20:58;-2.00;99.90
17252;DHT22;8742;51.716;8.790;2022-12-10T04:23:42;-2.00;99.90
17252;DHT22;8742;51.716;8.790;2022-12-10T04:26:27;-1.90;99.90
17252;DHT22;8742;51.716;8.790;2022-12-10T04:29:12;-1.90;99.90
17252;DHT22;8742;51.716;8.790;2022-12-10T04:31:39;-1.80;99.90
17252;DHT22;8742;51.716;8.790;2022-12-10T04:34:06;-1.80;99.90
17252;DHT22;8742;51.716;8.790;2022-12-10T04:36:34;-1.70;99.90
17252;DHT22;8742;51.716;8.790;2022-12-10T04:39:01;-1.70;99.90
17252;DHT22;8742;51.716;8.790;2022-12-10T04:41:28;-1.60;99.90
17252;DHT22;8742;51.716;8.790;2022-12-10T04:43:54;-1.50;99.90
17252;DHT22;8742;51.716;8.790;2022-12-10T04:46:21;-1.50;99.90
17252;DHT22;8742;51.716;8.790;2022-12-10T04:48:48;-1.40;99.90
17252;DHT22;8742;51.716;8.790;2022-12-10T04:51:15;-1.30;99.90
17252;DHT22;8742;51.716;8.790;2022-12-10T04:53:43;-1.30;99.90
17252;DHT22;8742;51.716;8.790;2022-12-10T04:56:10;-1.20;99.90
17252;DHT22;8742;51.716;8.790;2022-12-10T04:58:37;-1.20;99.90
17252;DHT22;8742;51.716;8.790;2022-12-10T05:01:05;-1.10;99.90
17252;DHT22;8742;51.716;8.790;2022-12-10T05:03:33;-1.10;99.90
17252;DHT22;8742;51.716;8.790;2022-12-10T05:06:01;-1.00;99.90
17252;DHT22;8742;51.716;8.790;2022-12-10T05:08:28;-1.00;99.90
17252;DHT22;8742;51.716;8.790;2022-12-10T05:11:00;-1.00;99.90
17252;DHT22;8742;51.716;8.790;2022-12-10T05:13:27;-1.00;99.90
17252;DHT22;8742;51.716;8.790;2022-12-10T05:15:54;-1.00;99.90
17252;DHT22;8742;51.716;8.790;2022-12-10T05:18:21;-0.90;99.90
17252;DHT22;8742;51.716;8.790;2022-12-10T05:20:47;-0.90;99.90
17252;DHT22;8742;51.716;8.790;2022-12-10T05:23:14;-0.90;99.90
17252;DHT22;8742;51.716;8.790;2022-12-10T05:26:02;-0.90;99.90
17252;DHT22;8742;51.716;8.790;2022-12-10T05:28:30;-0.90;99.90
17252;DHT22;8742;51.716;8.790;2022-12-10T05:30:57;-0.90;99.90
17252;DHT22;8742;51.716;8.790;2022-12-10T05:33:25;-0.80;99.90
17252;DHT22;8742;51.716;8.790;2022-12-10T05:35:53;-0.90;99.90
17252;DHT22;8742;51.716;8.790;2022-12-10T05:38:21;-0.90;99.90
17252;DHT22;8742;51.716;8.790;2022-12-10T05:40:48;-0.80;99.90
17252;DHT22;8742;51.716;8.790;2022-12-10T05:43:16;-0.80;99.90
17252;DHT22;8742;51.716;8.790;2022-12-10T05:45:43;-0.80;99.90
17252;DHT22;8742;51.716;8.790;2022-12-10T05:48:11;-0.80;99.90
17252;DHT22;8742;51.716;8.790;2022-12-10T05:50:38;-0.80;99.90
17252;DHT22;8742;51.716;8.790;2022-12-10T05:53:05;-0.80;99.90
17252;DHT22;8742;51.716;8.790;2022-12-10T05:55:32;-0.80;99.90
17252;DHT22;8742;51.716;8.790;2022-12-10T05:57:59;-0.80;99.90
17252;DHT22;8742;51.716;8.790;2022-12-10T06:00:28;-0.80;99.90
17252;DHT22;8742;51.716;8.790;2022-12-10T06:02:55;-0.80;99.90
17252;DHT22;8742;51.716;8.790;2022-12-10T06:05:22;-0.80;99.90
17252;DHT22;8742;51.716;8.790;2022-12-10T06:07:48;-0.80;99.90
17252;DHT22;8742;51.716;8.790;2022-12-10T06:10:16;-0.80;99.90
17252;DHT22;8742;51.716;8.790;2022-12-10T06:12:43;-0.80;99.90
17252;DHT22;8742;51.716;8.790;2022-12-10T06:15:10;-0.80;99.90
17252;DHT22;8742;51.716;8.790;2022-12-10T06:17:38;-0.70;99.90
17252;DHT22;8742;51.716;8.790;2022-12-10T06:20:06;-0.80;99.90
17252;DHT22;8742;51.716;8.790;2022-12-10T06:22:33;-0.80;99.90
17252;DHT22;8742;51.716;8.790;2022-12-10T06:25:00;-0.80;99.90
17252;DHT22;8742;51.716;8.790;2022-12-10T06:27:29;-0.80;99.90
17252;DHT22;8742;51.716;8.790;2022-12-10T06:29:56;-0.80;99.90
17252;DHT22;8742;51.716;8.790;2022-12-10T06:32:23;-0.80;99.90
17252;DHT22;8742;51.716;8.790;2022-12-10T06:34:52;-0.80;99.90
17252;DHT22;8742;51.716;8.790;2022-12-10T06:37:18;-0.80;99.90
17252;DHT22;8742;51.716;8.790;2022-12-10T06:39:45;-0.80;99.90
17252;DHT22;8742;51.716;8.790;2022-12-10T06:42:12;-0.80;99.90
17252;DHT22;8742;51.716;8.790;2022-12-10T06:44:39;-0.80;99.90
17252;DHT22;8742;51.716;8.790;2022-12-10T06:47:06;-0.80;99.90
17252;DHT22;8742;51.716;8.790;2022-12-10T06:49:33;-0.80;99.90
17252;DHT22;8742;51.716;8.790;2022-12-10T06:52:01;-0.80;99.90
17252;DHT22;8742;51.716;8.790;2022-12-10T06:54:29;-0.80;99.90
17252;DHT22;8742;51.716;8.790;2022-12-10T06:56:56;-0.80;99.90
17252;DHT22;8742;51.716;8.790;2022-12-10T06:59:23;-0.80;99.90
17252;DHT22;8742;51.716;8.790;2022-12-10T07:01:50;-0.80;99.90
17252;DHT22;8742;51.716;8.790;2022-12-10T07:04:16;-0.80;99.90
17252;DHT22;8742;51.716;8.790;2022-12-10T07:06:43;-0.80;99.90
17252;DHT22;8742;51.716;8.790;2022-12-10T07:09:12;-0.80;99.90
17252;DHT22;8742;51.716;8.790;2022-12-10T07:11:39;-0.80;99.90
17252;DHT22;8742;51.716;8.790;2022-12-10T07:14:05;-0.80;99.90
17252;DHT22;8742;51.716;8.790;2022-12-10T07:16:33;-0.80;99.90
17252;DHT22;8742;51.716;8.790;2022-12-10T07:19:01;-0.80;99.90
17252;DHT22;8742;51.716;8.790;2022-12-10T07:21:37;-0.80;99.90
17252;DHT22;8742;51.716;8.790;2022-12-10T07:24:08;-0.70;99.90
17252;DHT22;8742;51.716;8.790;2022-12-10T07:26:41;-0.70;99.90
17252;DHT22;8742;51.716;8.790;2022-12-10T07:29:13;-0.70;99.90
17252;DHT22;8742;51.716;8.790;2022-12-10T07:31:40;-0.70;99.90
17252;DHT22;8742;51.716;8.790;2022-12-10T07:34:10;-0.70;99.90
17252;DHT22;8742;51.716;8.790;2022-12-10T07:36:37;-0.70;99.90
17252;DHT22;8742;51.716;8.790;2022-12-10T07:39:06;-0.70;99.90
17252;DHT22;8742;51.716;8.790;2022-12-10T07:41:33;-0.60;99.90
17252;DHT22;8742;51.716;8.790;2022-12-10T07:44:03;-0.60;99.90
17252;DHT22;8742;51.716;8.790;2022-12-10T07:46:32;-0.60;99.90
17252;DHT22;8742;51.716;8.790;2022-12-10T07:49:00;-0.60;99.90
17252;DHT22;8742;51.716;8.790;2022-12-10T07:51:27;-0.60;99.90
17252;DHT22;8742;51.716;8.790;2022-12-10T07:53:55;-0.60;99.90
17252;DHT22;8742;51.716;8.790;2022-12-10T07:56:22;-0.60;99.90
17252;DHT22;8742;51.716;8.790;2022-12-10T07:58:51;-0.60;99.90
17252;DHT22;8742;51.716;8.790;2022-12-10T08:01:21;-0.60;99.90
17252;DHT22;8742;51.716;8.790;2022-12-10T08:03:49;-0.60;99.90
17252;DHT22;8742;51.716;8.790;2022-12-10T08:06:18;-0.50;99.90
17252;DHT22;8742;51.716;8.790;2022-12-10T08:08:46;-0.50;99.90
17252;DHT22;8742;51.716;8.790;2022-12-10T08:11:14;-0.50;99.90
17252;DHT22;8742;51.716;8.790;2022-12-10T08:13:41;-0.50;99.90
17252;DHT22;8742;51.716;8.790;2022-12-10T08:16:12;-0.50;99.90
17252;DHT22;8742;51.716;8.790;2022-12-10T08:18:41;-0.40;99.90
17252;DHT22;8742;51.716;8.790;2022-12-10T08:21:10;-0.40;99.90
17252;DHT22;8742;51.716;8.790;2022-12-10T08:23:37;-0.40;99.90
17252;DHT22;8742;51.716;8.790;2022-12-10T08:26:05;-0.30;99.90
17252;DHT22;8742;51.716;8.790;2022-12-10T08:28:32;-0.30;99.90
17252;DHT22;8742;51.716;8.790;2022-12-10T08:30:59;-0.30;99.90
17252;DHT22;8742;51.716;8.790;2022-12-10T08:33:26;-0.30;99.90
17252;DHT22;8742;51.716;8.790;2022-12-10T08:35:58;-0.30;99.90
17252;DHT22;8742;51.716;8.790;2022-12-10T08:38:26;-0.20;99.90
17252;DHT22;8742;51.716;8.790;2022-12-10T08:40:53;-0.20;99.90
17252;DHT22;8742;51.716;8.790;2022-12-10T08:43:20;-0.20;99.90
17252;DHT22;8742;51.716;8.790;2022-12-10T08:45:47;-0.20;99.90
17252;DHT22;8742;51.716;8.790;2022-12-10T08:48:13;-0.10;99.90
17252;DHT22;8742;51.716;8.790;2022-12-10T08:50:40;-0.10;99.90
17252;DHT22;8742;51.716;8.790;2022-12-10T08:53:09;-0.10;99.90
17252;DHT22;8742;51.716;8.790;2022-12-10T08:55:38;0.00;99.90
17252;DHT22;8742;51.716;8.790;2022-12-10T08:58:05;0.00;99.90
17252;DHT22;8742;51.716;8.790;2022-12-10T09:00:32;0.00;99.90
17252;DHT22;8742;51.716;8.790;2022-12-10T09:02:59;0.00;99.90
17252;DHT22;8742;51.716;8.790;2022-12-10T09:05:26;0.00;99.90
17252;DHT22;8742;51.716;8.790;2022-12-10T09:07:52;0.10;99.90
17252;DHT22;8742;51.716;8.790;2022-12-10T09:10:21;0.10;99.90
17252;DHT22;8742;51.716;8.790;2022-12-10T09:12:48;0.10;99.90
17252;DHT22;8742;51.716;8.790;2022-12-10T09:15:15;0.20;99.90
17252;DHT22;8742;51.716;8.790;2022-12-10T09:17:41;0.20;99.90
17252;DHT22;8742;51.716;8.790;2022-12-10T09:20:09;0.20;99.90
17252;DHT22;8742;51.716;8.790;2022-12-10T09:22:36;0.20;99.90
17252;DHT22;8742;51.716;8.790;2022-12-10T09:25:03;0.30;99.90
17252;DHT22;8742;51.716;8.790;2022-12-10T09:27:32;0.30;99.90
17252;DHT22;8742;51.716;8.790;2022-12-10T09:29:59;0.30;99.90
17252;DHT22;8742;51.716;8.790;2022-12-10T09:32:26;0.30;99.90
17252;DHT22;8742;51.716;8.790;2022-12-10T09:34:53;0.30;99.90
17252;DHT22;8742;51.716;8.790;2022-12-10T09:37:20;0.40;99.90
17252;DHT22;8742;51.716;8.790;2022-12-10T09:39:46;0.40;99.90
17252;DHT22;8742;51.716;8.790;2022-12-10T09:42:21;0.40;99.90
17252;DHT22;8742;51.716;8.790;2022-12-10T09:44:59;0.40;99.90
17252;DHT22;8742;51.716;8.790;2022-12-10T09:47:33;0.40;99.90
17252;DHT22;8742;51.716;8.790;2022-12-10T09:50:10;0.40;99.90
17252;DHT22;8742;51.716;8.790;2022-12-10T09:52:41;0.50;99.90
17252;DHT22;8742;51.716;8.790;2022-12-10T09:55:14;0.50;99.90
17252;DHT22;8742;51.716;8.790;2022-12-10T09:57:43;0.50;99.90
17252;DHT22;8742;51.716;8.790;2022-12-10T10:00:26;0.50;99.90
17252;DHT22;8742;51.716;8.790;2022-12-10T10:02:57;0.60;99.90
17252;DHT22;8742;51.716;8.790;2022-12-10T10:05:27;0.60;99.90
17252;DHT22;8742;51.716;8.790;2022-12-10T10:07:56;0.60;99.90
17252;DHT22;8742;51.716;8.790;2022-12-10T10:10:26;0.60;99.90
17252;DHT22;8742;51.716;8.790;2022-12-10T10:12:55;0.60;99.90
17252;DHT22;8742;51.716;8.790;2022-12-10T10:15:26;0.60;99.90
17252;DHT22;8742;51.716;8.790;2022-12-10T10:17:58;0.60;99.90
17252;DHT22;8742;51.716;8.790;2022-12-10T10:20:25;0.70;99.90
17252;DHT22;8742;51.716;8.790;2022-12-10T10:22:54;0.70;99.90
17252;DHT22;8742;51.716;8.790;2022-12-10T10:25:25;0.70;99.90
17252;DHT22;8742;51.716;8.790;2022-12-10T10:27:53;0.70;99.90
17252;DHT22;8742;51.716;8.790;2022-12-10T10:30:22;0.70;99.90
17252;DHT22;8742;51.716;8.790;2022-12-10T10:32:52;0.60;99.90
17252;DHT22;8742;51.716;8.790;2022-12-10T10:35:23;0.70;99.90
17252;DHT22;8742;51.716;8.790;2022-12-10T10:37:52;0.60;99.90
17252;DHT22;8742;51.716;8.790;2022-12-10T10:40:24;0.60;99.90
17252;DHT22;8742;51.716;8.790;2022-12-10T10:42:54;0.60;99.90
17252;DHT22;8742;51.716;8.790;2022-12-10T10:45:34;0.60;99.90
17252;DHT22;8742;51.716;8.790;2022-12-10T10:48:10;0.60;99.90
17252;DHT22;8742;51.716;8.790;2022-12-10T10:50:40;0.70;99.90
17252;DHT22;8742;51.716;8.790;2022-12-10T10:53:24;0.70;99.90
17252;DHT22;8742;51.716;8.790;2022-12-10T10:55:52;0.70;99.90
17252;DHT22;8742;51.716;8.790;2022-12-10T10:58:21;0.70;99.90
17252;DHT22;8742;51.716;8.790;2022-12-10T11:00:56;0.70;99.90
17252;DHT22;8742;51.716;8.790;2022-12-10T11:03:25;0.70;99.90
17252;DHT22;8742;51.716;8.790;2022-12-10T11:05:54;0.80;99.90
17252;DHT22;8742;51.716;8.790;2022-12-10T11:08:20;0.80;99.90
17252;DHT22;8742;51.716;8.790;2022-12-10T11:10:48;0.80;99.90
17252;DHT22;8742;51.716;8.790;2022-12-10T11:13:21;0.80;99.90
17252;DHT22;8742;51.716;8.790;2022-12-10T11:15:55;0.80;99.90
17252;DHT22;8742;51.716;8.790;2022-12-10T11:18:27;0.80;99.90
17252;DHT22;8742;51.716;8.790;2022-12-10T11:20:58;0.80;99.90
17252;DHT22;8742;51.716;8.790;2022-12-10T11:23:28;0.80;99.90
17252;DHT22;8742;51.716;8.790;2022-12-10T11:26:02;0.80;99.90
17252;DHT22;8742;51.716;8.790;2022-12-10T11:28:42;0.80;99.90
17252;DHT22;8742;51.716;8.790;2022-12-10T11:31:26;0.80;99.90
17252;DHT22;8742;51.716;8.790;2022-12-10T11:34:07;0.80;99.90
17252;DHT22;8742;51.716;8.790;2022-12-10T11:36:40;0.80;99.90
17252;DHT22;8742;51.716;8.790;2022-12-10T11:39:20;0.80;99.90
17252;DHT22;8742;51.716;8.790;2022-12-10T11:41:55;0.80;99.90
17252;DHT22;8742;51.716;8.790;2022-12-10T11:44:29;0.80;99.90
17252;DHT22;8742;51.716;8.790;2022-12-10T11:47:13;0.80;99.90
17252;DHT22;8742;51.716;8.790;2022-12-10T11:49:47;0.90;99.90
17252;DHT22;8742;51.716;8.790;2022-12-10T11:52:20;0.80;99.90
17252;DHT22;8742;51.716;8.790;2022-12-10T11:55:01;0.80;99.90
17252;DHT22;8742;51.716;8.790;2022-12-10T11:57:35;0.80;99.90
17252;DHT22;8742;51.716;8.790;2022-12-10T12:00:19;0.90;99.90
17252;DHT22;8742;51.716;8.790;2022-12-10T12:03:11;0.80;99.90
17252;DHT22;8742;51.716;8.790;2022-12-10T12:05:57;0.80;99.90
17252;DHT22;8742;51.716;8.790;2022-12-10T12:08:30;0.80;99.90
17252;DHT22;8742;51.716;8.790;2022-12-10T12:11:13;0.80;99.90
17252;DHT22;8742;51.716;8.790;2022-12-10T12:13:51;0.80;99.90
17252;DHT22;8742;51.716;8.790;2022-12-10T12:16:23;0.80;99.90
17252;DHT22;8742;51.716;8.790;2022-12-10T12:18:55;0.80;99.90
17252;DHT22;8742;51.716;8.790;2022-12-10T12:21:26;0.80;99.90
17252;DHT22;8742;51.716;8.790;2022-12-10T12:23:56;0.80;99.90
17252;DHT22;8742;51.716;8.790;2022-12-10T12:26:28;0.80;99.90
17252;DHT22;8742;51.716;8.790;2022-12-10T12:29:00;0.80;99.90
17252;DHT22;8742;51.716;8.790;2022-12-10T12:31:31;0.80;99.90
17252;DHT22;8742;51.716;8.790;2022-12-10T12:34:05;0.80;99.90
17252;DHT22;8742;51.716;8.790;2022-12-10T12:36:34;0.80;99.90
17252;DHT22;8742;51.716;8.790;2022-12-10T12:39:05;0.80;99.90
17252;DHT22;8742;51.716;8.790;2022-12-10T12:41:41;0.80;99.90
17252;DHT22;8742;51.716;8.790;2022-12-10T12:44:17;0.80;99.90
17252;DHT22;8742;51.716;8.790;2022-12-10T12:46:46;0.80;99.90
17252;DHT22;8742;51.716;8.790;2022-12-10T12:49:18;0.80;99.90
17252;DHT22;8742;51.716;8.790;2022-12-10T12:51:52;0.80;99.90
17252;DHT22;8742;51.716;8.790;2022-12-10T12:54:20;0.80;99.90
17252;DHT22;8742;51.716;8.790;2022-12-10T12:56:58;0.80;99.90
17252;DHT22;8742;51.716;8.790;2022-12-10T12:59:45;0.80;99.90
17252;DHT22;8742;51.716;8.790;2022-12-10T13:02:26;0.80;99.90
17252;DHT22;8742;51.716;8.790;2022-12-10T13:04:57;0.70;99.90
17252;DHT22;8742;51.716;8.790;2022-12-10T13:07:33;0.80;99.90
17252;DHT22;8742;51.716;8.790;2022-12-10T13:10:25;0.70;99.90
17252;DHT22;8742;51.716;8.790;2022-12-10T13:13:07;0.70;99.90
17252;DHT22;8742;51.716;8.790;2022-12-10T13:15:36;0.70;99.90
17252;DHT22;8742;51.716;8.790;2022-12-10T13:18:20;0.70;99.90
17252;DHT22;8742;51.716;8.790;2022-12-10T13:20:48;0.70;99.90
17252;DHT22;8742;51.716;8.790;2022-12-10T13:23:34;0.70;99.90
17252;DHT22;8742;51.716;8.790;2022-12-10T13:26:23;0.70;99.90
17252;DHT22;8742;51.716;8.790;2022-12-10T13:28:51;0.70;99.90
17252;DHT22;8742;51.716;8.790;2022-12-10T13:31:21;0.70;99.90
17252;DHT22;8742;51.716;8.790;2022-12-10T13:33:52;0.70;99.90
17252;DHT22;8742;51.716;8.790;2022-12-10T13:36:27;0.70;99.90
17252;DHT22;8742;51.716;8.790;2022-12-10T13:39:10;0.70;99.90
17252;DHT22;8742;51.716;8.790;2022-12-10T13:41:40;0.70;99.90
17252;DHT22;8742;51.716;8.790;2022-12-10T13:44:34;0.70;99.90
17252;DHT22;8742;51.716;8.790;2022-12-10T13:47:05;0.70;99.90
17252;DHT22;8742;51.716;8.790;2022-12-10T13:49:52;0.70;99.90
17252;DHT22;8742;51.716;8.790;2022-12-10T13:52:23;0.70;99.90
17252;DHT22;8742;51.716;8.790;2022-12-10T13:55:19;0.70;99.90
17252;DHT22;8742;51.716;8.790;2022-12-10T13:57:56;0.70;99.90
17252;DHT22;8742;51.716;8.790;2022-12-10T14:00:33;0.70;99.90
17252;DHT22;8742;51.716;8.790;2022-12-10T14:03:19;0.70;99.90
17252;DHT22;8742;51.716;8.790;2022-12-10T14:06:10;0.70;99.90
17252;DHT22;8742;51.716;8.790;2022-12-10T14:08:41;0.70;99.90
17252;DHT22;8742;51.716;8.790;2022-12-10T14:11:17;0.70;99.90
17252;DHT22;8742;51.716;8.790;2022-12-10T14:13:49;0.60;99.90
17252;DHT22;8742;51.716;8.790;2022-12-10T14:16:20;0.60;99.90
17252;DHT22;8742;51.716;8.790;2022-12-10T14:18:53;0.60;99.90
17252;DHT22;8742;51.716;8.790;2022-12-10T14:21:21;0.60;99.90
17252;DHT22;8742;51.716;8.790;2022-12-10T14:23:52;0.60;99.90
17252;DHT22;8742;51.716;8.790;2022-12-10T14:26:22;0.60;99.90
17252;DHT22;8742;51.716;8.790;2022-12-10T14:28:56;0.60;99.90
17252;DHT22;8742;51.716;8.790;2022-12-10T14:31:27;0.60;99.90
17252;DHT22;8742;51.716;8.790;2022-12-10T14:33:57;0.60;99.90
17252;DHT22;8742;51.716;8.790;2022-12-10T14:36:28;0.60;99.90
17252;DHT22;8742;51.716;8.790;2022-12-10T14:38:56;0.60;99.90
17252;DHT22;8742;51.716;8.790;2022-12-10T14:41:27;0.50;99.90
17252;DHT22;8742;51.716;8.790;2022-12-10T14:43:55;0.50;99.90
17252;DHT22;8742;51.716;8.790;2022-12-10T14:46:25;0.50;99.90
17252;DHT22;8742;51.716;8.790;2022-12-10T14:48:54;0.50;99.90
17252;DHT22;8742;51.716;8.790;2022-12-10T14:51:22;0.50;99.90
17252;DHT22;8742;51.716;8.790;2022-12-10T14:53:51;0.50;99.90
17252;DHT22;8742;51.716;8.790;2022-12-10T14:56:25;0.40;99.90
17252;DHT22;8742;51.716;8.790;2022-12-10T14:58:57;0.40;99.90
17252;DHT22;8742;51.716;8.790;2022-12-10T15:01:28;0.40;99.90
17252;DHT22;8742;51.716;8.790;2022-12-10T15:03:57;0.30;99.90
17252;DHT22;8742;51.716;8.790;2022-12-10T15:06:25;0.30;99.90
17252;DHT22;8742;51.716;8.790;2022-12-10T15:08:55;0.30;99.90
17252;DHT22;8742;51.716;8.790;2022-12-10T15:11:25;0.30;99.90
17252;DHT22;8742;51.716;8.790;2022-12-10T15:13:54;0.20;99.90
17252;DHT22;8742;51.716;8.790;2022-12-10T15:16:29;0.20;99.90
17252;DHT22;8742;51.716;8.790;2022-12-10T15:19:07;0.20;99.90
17252;DHT22;8742;51.716;8.790;2022-12-10T15:21:41;0.20;99.90
17252;DHT22;8742;51.716;8.790;2022-12-10T15:24:14;0.20;99.90
17252;DHT22;8742;51.716;8.790;2022-12-10T15:26:45;0.20;99.90
17252;DHT22;8742;51.716;8.790;2022-12-10T15:29:33;0.20;99.90
17252;DHT22;8742;51.716;8.790;2022-12-10T15:32:08;0.20;99.90
17252;DHT22;8742;51.716;8.790;2022-12-10T15:34:42;0.10;99.90
17252;DHT22;8742;51.716;8.790;2022-12-10T15:37:19;0.20;99.90
17252;DHT22;8742;51.716;8.790;2022-12-10T15:39:50;0.10;99.90
17252;DHT22;8742;51.716;8.790;2022-12-10T15:42:39;0.10;99.90
17252;DHT22;8742;51.716;8.790;2022-12-10T15:45:19;0.10;99.90
17252;DHT22;8742;51.716;8.790;2022-12-10T15:47:47;0.10;99.90
17252;DHT22;8742;51.716;8.790;2022-12-10T15:50:14;0.00;99.90
17252;DHT22;8742;51.716;8.790;2022-12-10T15:52:41;0.00;99.90
17252;DHT22;8742;51.716;8.790;2022-12-10T15:55:10;0.00;99.90
17252;DHT22;8742;51.716;8.790;2022-12-10T15:57:40;0.00;99.90
17252;DHT22;8742;51.716;8.790;2022-12-10T16:00:15;0.00;99.90
17252;DHT22;8742;51.716;8.790;2022-12-10T16:02:46;0.00;99.90
17252;DHT22;8742;51.716;8.790;2022-12-10T16:05:15;0.00;99.90
17252;DHT22;8742;51.716;8.790;2022-12-10T16:07:42;0.00;99.90
17252;DHT22;8742;51.716;8.790;2022-12-10T16:10:14;0.00;99.90
17252;DHT22;8742;51.716;8.790;2022-12-10T16:12:43;0.00;99.90
17252;DHT22;8742;51.716;8.790;2022-12-10T16:15:16;0.00;99.90
17252;DHT22;8742;51.716;8.790;2022-12-10T16:17:44;0.00;99.90